sensor_id;sensor_type;location;lat;lon;timestamp;pressure;altitude;pressure_sealevel;temperature;humidity
32733;BME280;11867;51.198;11.966;2022-09-09T00:04:38;100023.66;;;16.33;95.18
32733;BME280;11867;51.198;11.966;2022-09-09T00:09:45;100020.94;;;16.25;95.37
32733;BME280;11867;51.198;11.966;2022-09-09T00:14:52;100013.50;;;16.17;95.40
32733;BME280;11867;51.198;11.966;2022-09-09T00:19:59;100010.84;;;15.07;100.00
32733;BME280;11867;51.198;11.966;2022-09-09T00:25:10;100001.34;;;15.48;100.00
32733;BME280;11867;51.198;11.966;2022-09-09T00:30:16;100010.94;;;15.85;98.19
32733;BME280;11867;51.198;11.966;2022-09-09T00:35:23;100012.06;;;15.93;97.01
32733;BME280;11867;51.198;11.966;2022-09-09T00:40:32;99999.47;;;15.74;97.71
32733;BME280;11867;51.198;11.966;2022-09-09T00:45:53;100009.16;;;15.98;96.02
32733;BME280;11867;51.198;11.966;2022-09-09T00:51:05;100009.47;;;16.05;96.03
32733;BME280;11867;51.198;11.966;2022-09-09T00:56:16;100009.38;;;14.69;100.00
32733;BME280;11867;51.198;11.966;2022-09-09T01:01:23;100014.09;;;14.78;100.00
32733;BME280;11867;51.198;11.966;2022-09-09T01:06:29;100007.22;;;14.98;100.00
32733;BME280;11867;51.198;11.966;2022-09-09T01:11:41;100008.16;;;15.50;100.00
32733;BME280;11867;51.198;11.966;2022-09-09T01:16:45;100018.31;;;14.84;100.00
32733;BME280;11867;51.198;11.966;2022-09-09T01:21:56;100012.44;;;15.17;100.00
32733;BME280;11867;51.198;11.966;2022-09-09T01:27:05;100009.75;;;14.77;100.00
32733;BME280;11867;51.198;11.966;2022-09-09T01:32:37;100007.97;;;14.72;100.00
32733;BME280;11867;51.198;11.966;2022-09-09T01:37:41;99995.13;;;14.27;100.00
32733;BME280;11867;51.198;11.966;2022-09-09T01:42:45;100005.09;;;14.54;100.00
32733;BME280;11867;51.198;11.966;2022-09-09T01:47:48;100004.16;;;14.05;100.00
32733;BME280;11867;51.198;11.966;2022-09-09T01:52:57;100012.78;;;13.53;100.00
32733;BME280;11867;51.198;11.966;2022-09-09T01:58:17;100002.66;;;13.99;100.00
32733;BME280;11867;51.198;11.966;2022-09-09T02:03:25;99996.81;;;14.46;100.00
32733;BME280;11867;51.198;11.966;2022-09-09T02:08:35;100000.75;;;13.41;100.00
32733;BME280;11867;51.198;11.966;2022-09-09T02:13:43;100006.47;;;13.89;100.00
32733;BME280;11867;51.198;11.966;2022-09-09T02:18:50;99997.69;;;14.01;100.00
32733;BME280;11867;51.198;11.966;2022-09-09T02:23:56;100019.84;;;14.13;100.00
32733;BME280;11867;51.198;11.966;2022-09-09T02:29:03;100021.44;;;13.33;100.00
32733;BME280;11867;51.198;11.966;2022-09-09T02:34:09;100009.50;;;12.74;100.00
32733;BME280;11867;51.198;11.966;2022-09-09T02:39:13;100012.22;;;13.01;100.00
32733;BME280;11867;51.198;11.966;2022-09-09T02:44:18;100012.13;;;12.92;100.00
32733;BME280;11867;51.198;11.966;2022-09-09T02:49:27;100014.72;;;13.39;100.00
32733;BME280;11867;51.198;11.966;2022-09-09T02:54:37;100002.16;;;14.20;100.00
32733;BME280;11867;51.198;11.966;2022-09-09T02:59:43;99999.09;;;14.75;100.00
32733;BME280;11867;51.198;11.966;2022-09-09T03:04:46;99995.16;;;15.16;100.00
32733;BME280;11867;51.198;11.966;2022-09-09T03:09:52;100007.13;;;15.20;99.85
32733;BME280;11867;51.198;11.966;2022-09-09T03:14:57;100018.09;;;14.18;100.00
32733;BME280;11867;51.198;11.966;2022-09-09T03:20:01;100013.78;;;13.58;100.00
32733;BME280;11867;51.198;11.966;2022-09-09T03:25:04;100010.63;;;13.64;100.00
32733;BME280;11867;51.198;11.966;2022-09-09T03:30:10;99999.66;;;13.87;100.00
32733;BME280;11867;51.198;11.966;2022-09-09T03:35:13;100001.78;;;14.66;100.00
32733;BME280;11867;51.198;11.966;2022-09-09T03:40:16;100014.59;;;14.80;100.00
32733;BME280;11867;51.198;11.966;2022-09-09T03:45:22;100001.31;;;14.42;100.00
32733;BME280;11867;51.198;11.966;2022-09-09T03:50:24;99994.34;;;14.58;100.00
32733;BME280;11867;51.198;11.966;2022-09-09T03:55:27;100000.63;;;14.59;100.00
32733;BME280;11867;51.198;11.966;2022-09-09T04:00:30;100003.50;;;14.93;100.00
32733;BME280;11867;51.198;11.966;2022-09-09T04:05:33;100009.38;;;14.69;100.00
32733;BME280;11867;51.198;11.966;2022-09-09T04:10:36;100016.00;;;13.92;100.00
32733;BME280;11867;51.198;11.966;2022-09-09T04:15:40;100012.63;;;13.36;100.00
32733;BME280;11867;51.198;11.966;2022-09-09T04:20:45;100007.75;;;13.69;100.00
32733;BME280;11867;51.198;11.966;2022-09-09T04:25:49;100006.31;;;13.72;100.00
32733;BME280;11867;51.198;11.966;2022-09-09T04:30:54;100000.94;;;13.17;100.00
32733;BME280;11867;51.198;11.966;2022-09-09T04:35:58;100005.91;;;14.01;100.00
32733;BME280;11867;51.198;11.966;2022-09-09T04:41:00;100007.22;;;14.04;100.00
32733;BME280;11867;51.198;11.966;2022-09-09T04:46:05;100001.44;;;14.59;100.00
32733;BME280;11867;51.198;11.966;2022-09-09T04:51:09;100010.97;;;15.02;100.00
32733;BME280;11867;51.198;11.966;2022-09-09T04:56:15;100008.78;;;15.30;100.00
32733;BME280;11867;51.198;11.966;2022-09-09T05:01:21;100009.78;;;15.51;99.55
32733;BME280;11867;51.198;11.966;2022-09-09T05:06:25;100023.69;;;15.64;99.61
32733;BME280;11867;51.198;11.966;2022-09-09T05:11:29;100026.31;;;15.86;98.43
32733;BME280;11867;51.198;11.966;2022-09-09T05:16:33;100023.53;;;15.95;97.97
32733;BME280;11867;51.198;11.966;2022-09-09T05:21:36;100032.91;;;16.11;97.59
32733;BME280;11867;51.198;11.966;2022-09-09T05:26:38;100035.34;;;16.13;97.67
32733;BME280;11867;51.198;11.966;2022-09-09T05:31:42;100028.72;;;16.05;98.06
32733;BME280;11867;51.198;11.966;2022-09-09T05:36:45;100030.63;;;16.31;97.54
32733;BME280;11867;51.198;11.966;2022-09-09T05:41:48;100042.44;;;16.14;97.16
32733;BME280;11867;51.198;11.966;2022-09-09T05:46:52;100047.09;;;16.48;94.56
32733;BME280;11867;51.198;11.966;2022-09-09T05:51:55;100046.59;;;14.84;100.00
32733;BME280;11867;51.198;11.966;2022-09-09T05:56:58;100042.28;;;16.02;100.00
32733;BME280;11867;51.198;11.966;2022-09-09T06:02:02;100045.66;;;16.42;98.75
32733;BME280;11867;51.198;11.966;2022-09-09T06:07:05;100046.53;;;16.72;98.27
32733;BME280;11867;51.198;11.966;2022-09-09T06:12:08;100046.19;;;16.74;98.27
32733;BME280;11867;51.198;11.966;2022-09-09T06:17:12;100043.22;;;16.97;98.08
32733;BME280;11867;51.198;11.966;2022-09-09T06:22:14;100038.81;;;17.34;93.96
32733;BME280;11867;51.198;11.966;2022-09-09T06:27:17;100035.50;;;17.49;92.65
32733;BME280;11867;51.198;11.966;2022-09-09T06:32:21;100038.88;;;17.76;93.41
32733;BME280;11867;51.198;11.966;2022-09-09T06:37:24;100032.91;;;17.95;93.70
32733;BME280;11867;51.198;11.966;2022-09-09T06:42:28;100021.16;;;17.98;93.48
32733;BME280;11867;51.198;11.966;2022-09-09T06:47:32;100028.88;;;17.92;94.76
32733;BME280;11867;51.198;11.966;2022-09-09T06:52:34;100028.03;;;17.92;88.54
32733;BME280;11867;51.198;11.966;2022-09-09T06:57:37;100021.88;;;18.28;85.44
32733;BME280;11867;51.198;11.966;2022-09-09T07:02:41;100028.16;;;18.74;84.43
32733;BME280;11867;51.198;11.966;2022-09-09T07:07:43;100029.44;;;18.65;84.15
32733;BME280;11867;51.198;11.966;2022-09-09T07:12:50;100027.91;;;18.55;81.98
32733;BME280;11867;51.198;11.966;2022-09-09T07:17:55;100028.81;;;19.05;82.46
32733;BME280;11867;51.198;11.966;2022-09-09T07:22:57;100042.28;;;19.06;80.63
32733;BME280;11867;51.198;11.966;2022-09-09T07:28:00;100044.34;;;18.97;80.91
32733;BME280;11867;51.198;11.966;2022-09-09T07:33:06;100040.88;;;19.37;80.35
32733;BME280;11867;51.198;11.966;2022-09-09T07:38:08;100049.19;;;19.25;80.88
32733;BME280;11867;51.198;11.966;2022-09-09T07:43:12;100055.25;;;19.55;80.66
32733;BME280;11867;51.198;11.966;2022-09-09T07:48:19;100057.91;;;19.64;79.92
32733;BME280;11867;51.198;11.966;2022-09-09T07:53:21;100060.56;;;19.72;78.49
32733;BME280;11867;51.198;11.966;2022-09-09T07:58:24;100057.78;;;19.60;78.14
32733;BME280;11867;51.198;11.966;2022-09-09T08:03:27;100063.38;;;19.88;79.13
32733;BME280;11867;51.198;11.966;2022-09-09T08:08:30;100077.25;;;19.76;77.93
32733;BME280;11867;51.198;11.966;2022-09-09T08:13:33;100062.31;;;20.05;77.58
32733;BME280;11867;51.198;11.966;2022-09-09T08:18:38;100068.72;;;20.38;76.06
32733;BME280;11867;51.198;11.966;2022-09-09T08:23:42;100071.59;;;20.41;74.29
32733;BME280;11867;51.198;11.966;2022-09-09T08:28:44;100064.09;;;20.42;76.72
32733;BME280;11867;51.198;11.966;2022-09-09T08:33:48;100059.00;;;20.72;74.16
32733;BME280;11867;51.198;11.966;2022-09-09T08:38:55;100065.72;;;20.43;75.07
32733;BME280;11867;51.198;11.966;2022-09-09T08:44:01;100072.56;;;20.61;74.74
32733;BME280;11867;51.198;11.966;2022-09-09T08:49:15;100072.63;;;20.49;75.81
32733;BME280;11867;51.198;11.966;2022-09-09T08:54:19;100076.06;;;21.22;74.16
32733;BME280;11867;51.198;11.966;2022-09-09T08:59:42;100080.34;;;21.35;72.28
32733;BME280;11867;51.198;11.966;2022-09-09T09:04:56;100070.59;;;21.57;72.50
32733;BME280;11867;51.198;11.966;2022-09-09T09:10:07;100071.50;;;21.45;72.16
32733;BME280;11867;51.198;11.966;2022-09-09T09:15:36;100073.47;;;21.29;73.07
32733;BME280;11867;51.198;11.966;2022-09-09T09:20:47;100074.19;;;21.10;72.84
32733;BME280;11867;51.198;11.966;2022-09-09T09:25:56;100067.38;;;21.39;72.11
32733;BME280;11867;51.198;11.966;2022-09-09T09:31:03;100069.19;;;21.15;73.25
32733;BME280;11867;51.198;11.966;2022-09-09T09:36:08;100079.25;;;21.55;72.76
32733;BME280;11867;51.198;11.966;2022-09-09T09:41:11;100086.63;;;21.83;72.79
32733;BME280;11867;51.198;11.966;2022-09-09T09:46:19;100083.38;;;22.16;69.79
32733;BME280;11867;51.198;11.966;2022-09-09T09:51:26;100073.41;;;22.77;68.20
32733;BME280;11867;51.198;11.966;2022-09-09T09:56:30;100082.25;;;22.41;67.74
32733;BME280;11867;51.198;11.966;2022-09-09T10:01:34;100085.13;;;22.87;67.76
32733;BME280;11867;51.198;11.966;2022-09-09T10:06:38;100071.97;;;23.56;64.21
32733;BME280;11867;51.198;11.966;2022-09-09T10:11:45;100077.91;;;23.55;64.67
32733;BME280;11867;51.198;11.966;2022-09-09T10:17:05;100074.50;;;22.92;66.19
32733;BME280;11867;51.198;11.966;2022-09-09T10:22:24;100059.81;;;23.99;63.30
32733;BME280;11867;51.198;11.966;2022-09-09T10:27:33;100056.88;;;24.96;63.10
32733;BME280;11867;51.198;11.966;2022-09-09T10:32:46;100044.13;;;24.95;63.10
32733;BME280;11867;51.198;11.966;2022-09-09T10:38:03;100033.56;;;25.85;59.01
32733;BME280;11867;51.198;11.966;2022-09-09T10:43:16;100044.13;;;25.47;57.84
32733;BME280;11867;51.198;11.966;2022-09-09T10:48:31;100048.56;;;26.54;57.58
32733;BME280;11867;51.198;11.966;2022-09-09T10:53:49;100043.66;;;25.34;59.54
32733;BME280;11867;51.198;11.966;2022-09-09T10:58:58;100045.63;;;28.05;52.93
32733;BME280;11867;51.198;11.966;2022-09-09T11:04:05;100041.50;;;30.42;47.58
32733;BME280;11867;51.198;11.966;2022-09-09T11:09:16;100042.59;;;32.46;45.83
32733;BME280;11867;51.198;11.966;2022-09-09T11:14:22;100037.03;;;32.43;45.37
32733;BME280;11867;51.198;11.966;2022-09-09T11:19:34;100015.66;;;34.88;40.51
32733;BME280;11867;51.198;11.966;2022-09-09T11:24:41;100034.72;;;31.37;45.19
32733;BME280;11867;51.198;11.966;2022-09-09T11:29:57;100034.78;;;29.67;48.45
32733;BME280;11867;51.198;11.966;2022-09-09T11:35:19;100020.94;;;30.18;47.32
32733;BME280;11867;51.198;11.966;2022-09-09T11:40:27;100032.03;;;29.26;49.44
32733;BME280;11867;51.198;11.966;2022-09-09T11:45:33;100029.03;;;28.43;49.45
32733;BME280;11867;51.198;11.966;2022-09-09T11:50:37;100013.56;;;30.55;46.54
32733;BME280;11867;51.198;11.966;2022-09-09T11:55:43;100019.75;;;31.84;43.95
32733;BME280;11867;51.198;11.966;2022-09-09T12:00:47;100025.38;;;31.64;42.82
32733;BME280;11867;51.198;11.966;2022-09-09T12:05:51;100014.31;;;37.06;36.68
32733;BME280;11867;51.198;11.966;2022-09-09T12:10:56;100013.88;;;34.56;40.21
32733;BME280;11867;51.198;11.966;2022-09-09T12:16:01;100027.59;;;31.09;43.63
32733;BME280;11867;51.198;11.966;2022-09-09T12:21:14;100007.09;;;31.92;42.52
32733;BME280;11867;51.198;11.966;2022-09-09T12:26:38;100004.31;;;29.28;46.13
32733;BME280;11867;51.198;11.966;2022-09-09T12:31:46;100007.13;;;28.83;48.28
32733;BME280;11867;51.198;11.966;2022-09-09T12:36:55;99992.00;;;32.72;43.47
32733;BME280;11867;51.198;11.966;2022-09-09T12:42:01;99993.16;;;32.58;42.58
32733;BME280;11867;51.198;11.966;2022-09-09T12:47:05;99988.31;;;31.86;43.14
32733;BME280;11867;51.198;11.966;2022-09-09T12:52:11;99986.50;;;30.65;45.81
32733;BME280;11867;51.198;11.966;2022-09-09T12:57:17;99999.63;;;27.98;49.49
32733;BME280;11867;51.198;11.966;2022-09-09T13:02:21;99982.34;;;25.49;54.53
32733;BME280;11867;51.198;11.966;2022-09-09T13:07:24;99989.38;;;25.25;55.12
32733;BME280;11867;51.198;11.966;2022-09-09T13:12:29;99996.63;;;27.46;51.20
32733;BME280;11867;51.198;11.966;2022-09-09T13:17:31;99999.78;;;26.26;53.78
32733;BME280;11867;51.198;11.966;2022-09-09T13:22:35;99988.41;;;28.02;50.92
32733;BME280;11867;51.198;11.966;2022-09-09T13:27:41;99992.47;;;32.17;44.01
32733;BME280;11867;51.198;11.966;2022-09-09T13:32:44;99973.91;;;34.80;40.48
32733;BME280;11867;51.198;11.966;2022-09-09T13:37:47;99987.19;;;32.36;40.45
32733;BME280;11867;51.198;11.966;2022-09-09T13:42:55;99982.41;;;28.04;47.04
32733;BME280;11867;51.198;11.966;2022-09-09T13:48:08;99998.22;;;27.47;47.19
32733;BME280;11867;51.198;11.966;2022-09-09T13:53:11;99991.84;;;27.40;47.16
32733;BME280;11867;51.198;11.966;2022-09-09T13:58:16;99984.22;;;26.40;50.50
32733;BME280;11867;51.198;11.966;2022-09-09T14:03:22;99994.69;;;26.82;48.31
32733;BME280;11867;51.198;11.966;2022-09-09T14:08:26;99996.28;;;26.80;49.86
32733;BME280;11867;51.198;11.966;2022-09-09T14:13:31;99988.25;;;25.40;53.10
32733;BME280;11867;51.198;11.966;2022-09-09T14:18:34;99993.19;;;24.54;54.96
32733;BME280;11867;51.198;11.966;2022-09-09T14:23:37;99979.91;;;24.03;56.41
32733;BME280;11867;51.198;11.966;2022-09-09T14:28:41;99976.81;;;28.04;48.75
32733;BME280;11867;51.198;11.966;2022-09-09T14:34:00;99983.97;;;25.61;52.22
32733;BME280;11867;51.198;11.966;2022-09-09T14:39:02;99977.88;;;25.33;53.51
32733;BME280;11867;51.198;11.966;2022-09-09T14:44:06;99956.13;;;25.05;52.52
32733;BME280;11867;51.198;11.966;2022-09-09T14:49:09;99957.63;;;24.85;53.83
32733;BME280;11867;51.198;11.966;2022-09-09T14:54:13;99955.53;;;26.64;50.72
32733;BME280;11867;51.198;11.966;2022-09-09T14:59:18;99957.44;;;29.59;44.98
32733;BME280;11867;51.198;11.966;2022-09-09T15:04:21;99954.63;;;30.48;42.73
32733;BME280;11867;51.198;11.966;2022-09-09T15:09:23;99962.41;;;30.36;43.30
32733;BME280;11867;51.198;11.966;2022-09-09T15:14:28;99965.88;;;27.21;48.97
32733;BME280;11867;51.198;11.966;2022-09-09T15:19:30;99960.72;;;26.44;49.53
32733;BME280;11867;51.198;11.966;2022-09-09T15:24:34;99972.91;;;25.09;53.03
32733;BME280;11867;51.198;11.966;2022-09-09T15:29:37;99960.94;;;24.15;55.10
32733;BME280;11867;51.198;11.966;2022-09-09T15:34:40;99964.22;;;23.87;56.36
32733;BME280;11867;51.198;11.966;2022-09-09T15:39:43;99977.91;;;23.39;58.90
32733;BME280;11867;51.198;11.966;2022-09-09T15:44:47;99975.28;;;23.80;58.58
32733;BME280;11867;51.198;11.966;2022-09-09T15:49:49;99970.22;;;23.59;58.84
32733;BME280;11867;51.198;11.966;2022-09-09T15:54:51;99969.75;;;23.53;59.27
32733;BME280;11867;51.198;11.966;2022-09-09T15:59:55;99978.03;;;23.50;58.60
32733;BME280;11867;51.198;11.966;2022-09-09T16:04:58;99976.00;;;23.77;57.92
32733;BME280;11867;51.198;11.966;2022-09-09T16:10:01;99981.19;;;22.95;58.19
32733;BME280;11867;51.198;11.966;2022-09-09T16:15:09;99984.91;;;22.80;59.02
32733;BME280;11867;51.198;11.966;2022-09-09T16:20:14;99986.53;;;22.81;58.23
32733;BME280;11867;51.198;11.966;2022-09-09T16:25:17;99983.88;;;22.65;58.36
32733;BME280;11867;51.198;11.966;2022-09-09T16:30:21;99987.03;;;22.86;57.89
32733;BME280;11867;51.198;11.966;2022-09-09T16:35:23;99974.84;;;22.71;57.97
32733;BME280;11867;51.198;11.966;2022-09-09T16:40:26;99983.53;;;22.66;58.81
32733;BME280;11867;51.198;11.966;2022-09-09T16:45:29;99985.81;;;23.10;58.32
32733;BME280;11867;51.198;11.966;2022-09-09T16:50:33;99982.03;;;22.72;58.58
32733;BME280;11867;51.198;11.966;2022-09-09T16:55:39;99986.09;;;22.79;59.16
32733;BME280;11867;51.198;11.966;2022-09-09T17:00:44;99987.75;;;23.06;58.91
32733;BME280;11867;51.198;11.966;2022-09-09T17:05:48;99996.84;;;22.80;60.09
32733;BME280;11867;51.198;11.966;2022-09-09T17:10:52;99993.16;;;22.49;60.10
32733;BME280;11867;51.198;11.966;2022-09-09T17:15:55;99997.72;;;22.19;62.02
32733;BME280;11867;51.198;11.966;2022-09-09T17:21:04;99997.66;;;22.58;60.89
32733;BME280;11867;51.198;11.966;2022-09-09T17:26:09;100004.69;;;22.28;61.64
32733;BME280;11867;51.198;11.966;2022-09-09T17:31:16;100005.75;;;22.43;61.35
32733;BME280;11867;51.198;11.966;2022-09-09T17:36:20;100001.22;;;22.15;62.34
32733;BME280;11867;51.198;11.966;2022-09-09T17:41:25;100004.31;;;21.91;63.87
32733;BME280;11867;51.198;11.966;2022-09-09T17:46:31;100000.31;;;21.69;64.95
32733;BME280;11867;51.198;11.966;2022-09-09T17:51:36;100005.25;;;21.60;65.84
32733;BME280;11867;51.198;11.966;2022-09-09T17:56:39;100010.00;;;21.59;65.27
32733;BME280;11867;51.198;11.966;2022-09-09T18:01:45;100017.22;;;21.44;64.66
32733;BME280;11867;51.198;11.966;2022-09-09T18:06:49;100019.78;;;21.37;65.78
32733;BME280;11867;51.198;11.966;2022-09-09T18:11:54;100028.97;;;20.58;68.81
32733;BME280;11867;51.198;11.966;2022-09-09T18:16:59;100043.06;;;20.69;68.48
32733;BME280;11867;51.198;11.966;2022-09-09T18:22:03;100038.88;;;20.75;67.86
32733;BME280;11867;51.198;11.966;2022-09-09T18:27:07;100047.75;;;20.08;71.52
32733;BME280;11867;51.198;11.966;2022-09-09T18:32:10;100045.50;;;20.26;71.66
32733;BME280;11867;51.198;11.966;2022-09-09T18:37:17;100055.53;;;20.47;71.64
32733;BME280;11867;51.198;11.966;2022-09-09T18:42:19;100049.31;;;19.93;72.74
32733;BME280;11867;51.198;11.966;2022-09-09T18:47:23;100046.00;;;19.75;72.08
32733;BME280;11867;51.198;11.966;2022-09-09T18:52:26;100064.59;;;19.01;75.44
32733;BME280;11867;51.198;11.966;2022-09-09T18:57:28;100067.16;;;19.06;76.63
32733;BME280;11867;51.198;11.966;2022-09-09T19:02:38;100066.16;;;18.78;77.14
32733;BME280;11867;51.198;11.966;2022-09-09T19:07:40;100079.16;;;18.65;77.60
32733;BME280;11867;51.198;11.966;2022-09-09T19:12:43;100070.34;;;18.84;76.75
32733;BME280;11867;51.198;11.966;2022-09-09T19:17:46;100070.19;;;18.34;79.09
32733;BME280;11867;51.198;11.966;2022-09-09T19:22:50;100062.44;;;18.61;78.99
32733;BME280;11867;51.198;11.966;2022-09-09T19:27:52;100073.31;;;18.79;78.85
32733;BME280;11867;51.198;11.966;2022-09-09T19:32:56;100082.66;;;18.86;78.50
32733;BME280;11867;51.198;11.966;2022-09-09T19:37:59;100087.28;;;18.61;79.08
32733;BME280;11867;51.198;11.966;2022-09-09T19:43:02;100088.13;;;18.74;78.95
32733;BME280;11867;51.198;11.966;2022-09-09T19:48:05;100090.72;;;18.79;78.54
32733;BME280;11867;51.198;11.966;2022-09-09T19:53:09;100096.13;;;18.88;78.21
32733;BME280;11867;51.198;11.966;2022-09-09T19:58:12;100105.34;;;18.59;79.16
32733;BME280;11867;51.198;11.966;2022-09-09T20:03:16;100096.66;;;18.69;78.66
32733;BME280;11867;51.198;11.966;2022-09-09T20:08:20;100106.06;;;18.68;78.85
32733;BME280;11867;51.198;11.966;2022-09-09T20:13:23;100110.28;;;18.53;77.82
32733;BME280;11867;51.198;11.966;2022-09-09T20:18:28;100107.94;;;18.43;77.76
32733;BME280;11867;51.198;11.966;2022-09-09T20:23:32;100110.91;;;18.17;78.13
32733;BME280;11867;51.198;11.966;2022-09-09T20:28:36;100120.47;;;17.98;77.87
32733;BME280;11867;51.198;11.966;2022-09-09T20:33:41;100116.25;;;18.01;77.35
32733;BME280;11867;51.198;11.966;2022-09-09T20:38:45;100111.34;;;18.27;76.42
32733;BME280;11867;51.198;11.966;2022-09-09T20:43:49;100116.41;;;18.59;76.15
32733;BME280;11867;51.198;11.966;2022-09-09T20:48:53;100120.91;;;18.63;75.84
32733;BME280;11867;51.198;11.966;2022-09-09T20:54:04;100119.19;;;18.38;76.36
32733;BME280;11867;51.198;11.966;2022-09-09T20:59:10;100116.47;;;18.50;76.27
32733;BME280;11867;51.198;11.966;2022-09-09T21:04:16;100125.09;;;18.48;76.15
32733;BME280;11867;51.198;11.966;2022-09-09T21:09:20;100122.84;;;18.08;79.17
32733;BME280;11867;51.198;11.966;2022-09-09T21:14:24;100125.38;;;18.34;77.70
32733;BME280;11867;51.198;11.966;2022-09-09T21:19:29;100133.13;;;18.20;77.59
32733;BME280;11867;51.198;11.966;2022-09-09T21:24:33;100130.63;;;18.06;78.23
32733;BME280;11867;51.198;11.966;2022-09-09T21:29:36;100122.06;;;17.48;80.43
32733;BME280;11867;51.198;11.966;2022-09-09T21:34:40;100112.50;;;17.46;80.48
32733;BME280;11867;51.198;11.966;2022-09-09T21:39:42;100121.19;;;17.27;81.27
32733;BME280;11867;51.198;11.966;2022-09-09T21:44:48;100123.75;;;17.32;81.65
32733;BME280;11867;51.198;11.966;2022-09-09T21:49:52;100125.19;;;17.38;81.07
32733;BME280;11867;51.198;11.966;2022-09-09T21:54:54;100114.88;;;17.56;80.34
32733;BME280;11867;51.198;11.966;2022-09-09T21:59:58;100114.16;;;17.47;80.43
32733;BME280;11867;51.198;11.966;2022-09-09T22:05:02;100120.56;;;17.60;80.02
32733;BME280;11867;51.198;11.966;2022-09-09T22:10:06;100124.44;;;17.59;79.87
32733;BME280;11867;51.198;11.966;2022-09-09T22:15:09;100120.69;;;17.63;79.70
32733;BME280;11867;51.198;11.966;2022-09-09T22:20:12;100121.16;;;17.35;81.43
32733;BME280;11867;51.198;11.966;2022-09-09T22:25:15;100121.78;;;17.41;80.54
32733;BME280;11867;51.198;11.966;2022-09-09T22:30:17;100131.63;;;17.51;80.07
32733;BME280;11867;51.198;11.966;2022-09-09T22:35:22;100135.44;;;17.67;79.65
32733;BME280;11867;51.198;11.966;2022-09-09T22:40:24;100136.25;;;17.68;79.67
32733;BME280;11867;51.198;11.966;2022-09-09T22:45:27;100133.22;;;17.13;82.17
32733;BME280;11867;51.198;11.966;2022-09-09T22:50:33;100126.03;;;17.30;81.10
32733;BME280;11867;51.198;11.966;2022-09-09T22:55:42;100116.44;;;17.45;80.94
32733;BME280;11867;51.198;11.966;2022-09-09T23:00:45;100114.09;;;17.55;80.21
32733;BME280;11867;51.198;11.966;2022-09-09T23:06:04;100108.09;;;17.53;79.96
32733;BME280;11867;51.198;11.966;2022-09-09T23:11:08;100105.97;;;17.59;80.27
32733;BME280;11867;51.198;11.966;2022-09-09T23:16:11;100105.63;;;17.31;81.17
32733;BME280;11867;51.198;11.966;2022-09-09T23:21:15;100109.03;;;17.28;82.40
32733;BME280;11867;51.198;11.966;2022-09-09T23:26:18;100107.00;;;17.07;83.33
32733;BME280;11867;51.198;11.966;2022-09-09T23:31:21;100104.44;;;17.02;83.42
32733;BME280;11867;51.198;11.966;2022-09-09T23:36:27;100103.41;;;16.68;85.09
32733;BME280;11867;51.198;11.966;2022-09-09T23:41:35;100100.13;;;16.84;83.47
32733;BME280;11867;51.198;11.966;2022-09-09T23:46:40;100105.53;;;16.54;85.62
32733;BME280;11867;51.198;11.966;2022-09-09T23:51:44;100087.53;;;16.65;85.24
32733;BME280;11867;51.198;11.966;2022-09-09T23:56:49;100098.56;;;16.48;85.74
